• Join FlightAware (Why Join?)
  • Login
  • US Flag 
05:41PM EDT


 

Airport Tracker/Info


-or-


 

Live Flight TrackerFlight Track Log ✈ N789EX ✈ 28-Mar-2014 ✈ KBFI - KBFI

Flight Track Log - Related Links

Times and Time Zones

All times are in EDT time to prevent confusion due to time zone crossing. See the N789EX flight status page for this flight to view local times or setup timezone preferences in your user account.

Time Position Orientation Groundspeed Altitude Reporting Facility
EDT Latitude Longitude Course Direction KTS MPH feet Rate Location/Type
01:10PM 47.3419 -122.1690 209° Southwest 253 291 8,900  Level FlightAware ADS-B
01:10PM 47.3373 -122.1730 213° Southwest 254 292 9,200 3,480 Climbing FlightAware ADS-B
01:10PM 47.3078 -122.2030 215° Southwest 268 308 10,900 2,880 Climbing FlightAware ADS-B
01:10PM 47.2987 -122.2130 218° Southwest 283 326 11,100 1,260 Climbing FlightAware ADS-B
01:10PM 47.2934 -122.2190 224° Southwest 291 335 11,200 1,080 Climbing FlightAware ADS-B
01:10PM 47.2887 -122.2280 233° Southwest 297 342 11,300 1,980 Climbing FlightAware ADS-B
01:11PM 47.2861 -122.2340 241° Southwest 301 346 11,500 3,420 Climbing FlightAware ADS-B
01:11PM 47.2840 -122.2410 249° West 303 349 11,700 3,000 Climbing FlightAware ADS-B
01:11PM 47.2825 -122.2480 255° West 302 348 11,900 4,260 Climbing FlightAware ADS-B
01:11PM 47.2818 -122.2550 261° West 302 348 12,200 5,100 Climbing FlightAware ADS-B
01:11PM 47.2816 -122.2630 268° West 301 346 12,500 4,260 Climbing FlightAware ADS-B
01:11PM 47.2818 -122.2700 274° West 299 344 12,700 4,320 Climbing FlightAware ADS-B
01:11PM 47.2824 -122.2767 280° West 290 334 13,300 3,180 Climbing FlightAware ADS-B (CYVR)
01:11PM 47.2887 -122.3220 282° West 291 335 14,400 2,280 Climbing FlightAware ADS-B
01:12PM 47.2977 -122.3833 282° West 326 375 15,200 1,500 Climbing FlightAware ADS-B (CYVR)
01:12PM 47.2984 -122.3880 282° West 331 381 15,200  Level FlightAware ADS-B
01:12PM 47.3090 -122.4610 282° West 349 402 15,200  Level FlightAware ADS-B
01:12PM 47.3101 -122.4676 282° West 351 404 15,200  Level FlightAware ADS-B (CYVR)
01:13PM 47.3209 -122.5410 282° West 355 409 15,200  Level FlightAware ADS-B
01:13PM 47.3280 -122.5888 283° West 355 409 15,200  Level FlightAware ADS-B (CYVR)
01:13PM 47.3318 -122.6140 283° West 354 407 15,200  Level FlightAware ADS-B
01:14PM 47.3368 -122.6480 281° West 352 405 15,200  Level FlightAware ADS-B
01:14PM 47.3376 -122.6560 276° West 349 402 15,200  Level FlightAware ADS-B
01:14PM 47.3378 -122.6640 269° West 345 397 15,200  Level FlightAware ADS-B (CYVR)
01:14PM 47.3375 -122.6730 266° West 344 396 15,200  Level FlightAware ADS-B
01:14PM 47.3372 -122.6762 259° West 342 394 15,200  Level FlightAware ADS-B (CYVR)
01:14PM 47.3356 -122.6890 259° West 342 394 15,200  Level FlightAware ADS-B
01:14PM 47.3288 -122.7240 252° West 339 390 15,200  Level FlightAware ADS-B
01:15PM 47.3206 -122.7573 249° West 344 396 15,200  Level FlightAware ADS-B (CYWH)
01:15PM 47.3139 -122.7830 248° West 346 398 15,200  Level FlightAware ADS-B
01:15PM 47.2984 -122.8406 249° West 346 398 15,200  Level FlightAware ADS-B (CYWH)
01:15PM 47.2953 -122.8520 249° West 346 398 15,200  Level FlightAware ADS-B
01:16PM 47.2773 -122.9210 249° West 344 396 15,200  Level FlightAware ADS-B
01:16PM 47.2692 -122.9514 249° West 345 397 15,200  Level FlightAware ADS-B (CYVR)
01:16PM 47.2598 -122.9870 249° West 346 398 15,200  Level FlightAware ADS-B
01:17PM 47.2649 -122.9680 249° West 347 399 15,200  Level FlightAware ADS-B (CYVR)
01:17PM 47.2424 -123.0540 249° West 345 397 15,200  Level FlightAware ADS-B
01:17PM 47.2247 -123.1210 249° West 342 394 15,200  Level FlightAware ADS-B
01:17PM 47.2649 -122.9680 249° West 342 394 15,200  Level FlightAware ADS-B (CYVR)
01:18PM 47.2074 -123.1870 249° West 343 395 15,200  Level FlightAware ADS-B
01:18PM 47.1913 -123.2470 249° West 344 396 15,200  Level FlightAware ADS-B
01:19PM 47.1824 -123.2810 249° West 346 398 15,200  Level FlightAware ADS-B (CYVR)
01:19PM 47.1725 -123.3180 249° West 346 398 15,200  Level FlightAware ADS-B
01:19PM 47.1651 -123.3456 248° West 345 397 15,200  Level FlightAware ADS-B (CYVR)
01:19PM 47.1545 -123.3850 249° West 344 396 15,200  Level FlightAware ADS-B
01:20PM 47.1527 -123.3922 249° West 340 391 15,200  Level FlightAware ADS-B (CYVR)
01:20PM 47.1373 -123.4490 248° West 330 380 15,200  Level FlightAware ADS-B
01:20PM 47.1240 -123.4990 249° West 323 372 15,200  Level FlightAware ADS-B
01:20PM 47.1207 -123.5112 249° West 326 375 15,200  Level FlightAware ADS-B (CYVR)
01:21PM 47.1069 -123.5630 248° West 325 374 15,200  Level FlightAware ADS-B
01:21PM 47.1031 -123.5769 248° West 324 373 15,200  Level FlightAware ADS-B (CYVR)
01:21PM 47.0903 -123.6240 249° West 321 369 15,200  Level FlightAware ADS-B
01:22PM 47.0737 -123.6860 248° West 323 372 15,200  Level FlightAware ADS-B
01:22PM 47.0568 -123.7480 248° West 326 375 15,200  Level FlightAware ADS-B
01:22PM 47.0542 -123.7577 248° West 327 376 15,200  Level FlightAware ADS-B (CYVR)
01:23PM 47.0415 -123.8050 248° West 328 377 15,200  Level FlightAware ADS-B
01:23PM 47.0248 -123.8660 248° West 327 376 15,200  Level FlightAware ADS-B
01:24PM 47.0072 -123.9300 248° West 331 381 15,200  Level FlightAware ADS-B
01:24PM 46.9885 -123.9980 248° West 332 382 15,200  Level FlightAware ADS-B
01:25PM 46.9710 -124.0620 248° West 332 382 15,200  Level FlightAware ADS-B
01:25PM 46.9674 -124.0750 246° West 330 380 15,200  Level FlightAware ADS-B
01:25PM 46.9641 -124.0840 240° Southwest 329 379 15,200  Level FlightAware ADS-B
01:25PM 46.9607 -124.0910 234° Southwest 328 377 15,200  Level FlightAware ADS-B
01:25PM 46.9567 -124.0980 229° Southwest 327 376 15,200  Level FlightAware ADS-B
01:25PM 46.9504 -124.1070 223° Southwest 327 376 15,200  Level FlightAware ADS-B
01:25PM 46.9432 -124.1150 215° Southwest 328 377 15,200  Level FlightAware ADS-B
01:26PM 46.9189 -124.1380 218° Southwest 328 377 15,200  Level FlightAware ADS-B
01:26PM 46.8992 -124.1650 223° Southwest 325 374 15,200  Level FlightAware ADS-B
01:26PM 46.8886 -124.1800 227° Southwest 327 376 15,200  Level FlightAware ADS-B
01:26PM 46.8833 -124.1890 230° Southwest 327 376 15,200  Level FlightAware ADS-B
01:27PM 46.8549 -124.2420 232° Southwest 325 374 15,200  Level FlightAware ADS-B
01:27PM 46.8273 -124.2940 233° Southwest 325 374 15,200  Level FlightAware ADS-B
01:28PM 46.8001 -124.3460 233° Southwest 324 373 15,200  Level FlightAware ADS-B
01:28PM 46.7718 -124.4000 233° Southwest 325 374 15,200  Level FlightAware ADS-B
01:29PM 46.7441 -124.4530 233° Southwest 329 379 15,200  Level FlightAware ADS-B
01:29PM 46.7153 -124.5080 233° Southwest 335 386 15,200  Level FlightAware ADS-B
01:30PM 46.6845 -124.5670 233° Southwest 334 384 15,200  Level FlightAware ADS-B
01:30PM 46.6419 -124.6480 232° Southwest 333 383 15,200  Level FlightAware ADS-B
01:31PM 46.6120 -124.7040 233° Southwest 334 384 15,200  Level FlightAware ADS-B
01:33PM 46.5335 -124.8520 233° Southwest 260 299 15,200  Level FlightAware ADS-B
01:33PM 46.5106 -124.8950 232° Southwest 235 270 15,200 60 Level FlightAware ADS-B
01:34PM 46.4907 -124.9330 232° Southwest 229 264 15,300 600 Climbing FlightAware ADS-B
01:34PM 46.4649 -124.9810 233° Southwest 233 268 15,900 540 Climbing FlightAware ADS-B
01:35PM 46.4413 -125.0260 232° Southwest 236 272 16,000 -360 Climbing FlightAware ADS-B
01:35PM 46.4242 -125.0614 232° Southwest 232 267 15,500 -540 Descending Seattle Center
01:36PM 46.3906 -125.1289 234° Southwest 212 244 15,200 -120 Descending Seattle Center
01:37PM 46.3633 -125.1822 234° Southwest 184 212 15,300 300 Climbing Seattle Center
01:38PM 46.3300 -125.2403 230° Southwest 185 213 15,900 420 Climbing Seattle Center
01:40PM 46.2917 -125.3158 234° Southwest 193 222 16,200 240 Climbing Seattle Center
01:41PM 46.2625 -125.3808 237° Southwest 196 226 16,400 -420 Climbing Seattle Center
01:42PM 46.2217 -125.4222 215° Southwest 181 208 15,400 -900 Descending Seattle Center
01:43PM 46.1783 -125.4644 214° Southwest 183 211 14,600 -1,440 Descending Seattle Center
01:44PM 46.1439 -125.4969 213° Southwest 159 183 12,500 240 Descending Seattle Center
01:45PM 46.0975 -125.5431 215° Southwest 187 215 15,200 780 Climbing Seattle Center
01:46PM 46.0564 -125.5900 218° Southwest 191 220 14,100 -900 Descending Seattle Center
01:47PM 46.0125 -125.6336 215° Southwest 191 220 13,400 -1,380 Descending Seattle Center
01:48PM 45.9794 -125.6722 219° Southwest 165 190 11,300 360 Descending Seattle Center
01:49PM 45.9339 -125.7219 217° Southwest 199 229 14,200 1,740 Climbing Seattle Center
01:50PM 45.8911 -125.7686 217° Southwest 198 228 14,900 -780 Climbing Seattle Center
01:51PM 45.8425 -125.8236 218° Southwest 187 215 12,700 -1,500 Descending Seattle Center
01:52PM 45.7997 -125.8492 203° Southwest 171 197 11,900 -420 Descending Seattle Center
01:53PM 45.7500 -125.8856 207° Southwest 202 232 11,900 1,560 Level Seattle Center
01:54PM 45.7022 -125.9414 219° Southwest 221 254 15,100 1,380 Climbing Seattle Center
01:55PM 45.6642 -125.9992 227° Southwest 211 243 14,800 -1,140 Descending Seattle Center
01:56PM 45.6219 -126.0483 219° Southwest 201 231 12,900 -1,920 Descending Seattle Center
01:57PM 45.5875 -126.0950 223° Southwest 176 203 10,900 240 Descending Seattle Center
01:58PM 45.5308 -126.1483 213° Southwest 244 281 13,400 840 Climbing Seattle Center
01:59PM 45.5197 -126.0686 101° East 260 299 12,700 -120 Descending Seattle Center
02:00PM 45.5933 -126.0419 14° North 275 316 13,200 780 Climbing Seattle Center
02:01PM 45.6631 -125.9964 25° Northeast 276 318 14,400 240 Climbing Seattle Center
02:02PM 45.7239 -125.9394 33° Northeast 278 320 13,700 540 Descending Seattle Center
02:03PM 45.8142 -125.8542 33° Northeast 323 372 15,600 420 Climbing Seattle Center
02:04PM 45.8839 -125.7889 33° Northeast 307 353 14,600 -1,200 Descending Seattle Center
02:05PM 45.9431 -125.7353 32° Northeast 261 300 13,200 -300 Descending Seattle Center
02:06PM 46.0117 -125.6683 34° Northeast 285 328 14,000 480 Climbing Seattle Center
02:07PM 46.0764 -125.6000 36° Northeast 288 331 14,300 300 Climbing Seattle Center
02:08PM 46.1214 -125.5208 51° Northeast 273 314 14,700 240 Climbing Seattle Center
02:09PM 46.1519 -125.4297 64° Northeast 254 292 14,900 -420 Climbing Seattle Center
02:10PM 46.1839 -125.3414 62° Northeast 252 290 13,900 -960 Descending Seattle Center
02:11PM 46.2167 -125.2592 60° Northeast 239 275 13,000 -1,380 Descending Seattle Center
02:12PM 46.2483 -125.1911 56° Northeast 209 241 11,100 -1,260 Descending Seattle Center
02:13PM 46.2919 -125.1242 47° Northeast 227 261 10,500  Descending Seattle Center
02:14PM 46.3383 -125.0581 45° Northeast 230 265 11,100 1,320 Climbing Seattle Center
02:15PM 46.3589 -124.9706 71° East 233 268 13,300 1,800 Climbing Seattle Center
02:16PM 46.3256 -125.0133 222° Southwest 172 198 14,800 840 Climbing Seattle Center
02:17PM 46.2936 -125.0583 224° Southwest 165 190 15,100 -540 Climbing Seattle Center
02:18PM 46.2622 -125.1008 223° Southwest 156 180 13,800 -1,620 Descending Seattle Center
02:19PM 46.2411 -125.1372 230° Southwest 120 138 11,900 -960 Descending Seattle Center
02:20PM 46.2111 -125.1836 227° Southwest 151 174 11,900 -540 Level Seattle Center
02:21PM 46.1800 -125.2261 223° Southwest 151 174 10,900 -660 Descending Seattle Center
02:22PM 46.1531 -125.2744 231° Southwest 154 177 10,600 60 Descending Seattle Center
02:23PM 46.1361 -125.3369 249° West 162 186 11,100 600 Climbing Seattle Center
02:24PM 46.1253 -125.3969 255° West 163 188 11,900 780 Climbing Seattle Center
02:25PM 46.1164 -125.4581 258° West 162 186 12,700 240 Climbing Seattle Center
02:26PM 46.1047 -125.5153 254° West 131 151 12,400 -180 Descending Seattle Center
02:27PM 46.0806 -125.5725 239° Southwest 153 176 12,400 1,080 Level Seattle Center
02:28PM 46.0669 -125.6392 254° West 175 201 14,600 1,380 Climbing Seattle Center
02:29PM 46.0508 -125.7019 250° West 172 198 15,300 -420 Climbing Seattle Center
02:30PM 46.0300 -125.7517 239° Southwest 154 177 13,800 -1,860 Descending Seattle Center
02:31PM 46.0111 -125.7936 237° Southwest 134 154 11,600 -720 Descending Seattle Center
02:32PM 45.9750 -125.8278 213° Southwest 150 173 12,400 1,080 Climbing Seattle Center
02:33PM 45.9361 -125.8575 208° Southwest 158 182 13,800 780 Climbing Seattle Center
02:34PM 45.9031 -125.8939 217° Southwest 154 177 14,000 -420 Climbing Seattle Center
02:35PM 45.8742 -125.9267 218° Southwest 139 160 13,000 -420 Descending Seattle Center
02:36PM 45.8414 -125.9603 216° Southwest 140 161 13,200 480 Climbing Seattle Center
02:38PM 45.7978 -125.9964 210° Southwest 147 169 14,100 660 Climbing Seattle Center
02:39PM 45.7656 -126.0200 207° Southwest 137 158 14,600 360 Climbing Seattle Center
02:40PM 45.7275 -126.0408 201° Southwest 139 160 14,900 60 Climbing Seattle Center
02:41PM 45.6925 -126.0644 205° Southwest 142 163 14,800 -720 Descending Seattle Center
02:42PM 45.6619 -126.0964 216° Southwest 138 159 13,500 -1,560 Descending Seattle Center
02:43PM 45.6400 -126.1253 223° Southwest 116 133 11,700 240 Descending Seattle Center
02:44PM 45.6136 -126.1700 230° Southwest 137 158 14,100 1,500 Climbing Seattle Center
02:45PM 45.5869 -126.2150 230° Southwest 148 170 14,800 -60 Climbing Seattle Center
02:46PM 45.5644 -126.2481 226° Southwest 127 146 14,000 -1,140 Descending Seattle Center
02:47PM 45.5372 -126.2836 222° Southwest 130 150 12,600 -660 Descending Seattle Center
02:48PM 45.5836 -126.3161 334° Northwest 196 226 12,700 420 Climbing Seattle Center
02:49PM 45.6364 -126.3242 354° North 196 226 13,500 840 Climbing Seattle Center
02:50PM 45.6972 -126.3350 353° North 218 251 14,500 1,080 Climbing Seattle Center
02:51PM 45.7611 -126.3478 352° North 233 268 15,700 180 Climbing Seattle Center
02:52PM 45.8200 -126.3583 353° North 221 254 14,900 -1,020 Descending Seattle Center
02:53PM 45.8714 -126.3681 352° North 195 224 13,700 300 Descending Seattle Center
02:54PM 45.9250 -126.3258 29° Northeast 247 284 15,600 480 Climbing Seattle Center
02:55PM 45.9533 -126.2447 63° Northeast 235 270 14,700 -1,140 Descending Seattle Center
02:56PM 45.9769 -126.1742 64° Northeast 208 239 13,300 60 Descending Seattle Center
02:57PM 46.0003 -126.0889 68° East 221 254 14,900 240 Climbing Seattle Center
02:58PM 45.9692 -126.0453 136° Southeast 166 191 13,900 -960 Descending Seattle Center
02:59PM 45.9367 -126.0161 148° Southeast 145 167 13,000 420 Descending Seattle Center
03:01PM 45.8556 -125.9475 149° Southeast 157 181 15,200 960 Climbing Seattle Center
03:02PM 45.8150 -125.9147 151° Southeast 164 189 16,000 360 Climbing Seattle Center
03:03PM 45.7717 -125.9025 169° South 162 186 16,000  Level Seattle Center
03:04PM 45.7314 -125.9178 195° South 155 178 16,000  Level Seattle Center
03:05PM 45.6911 -125.9331 195° South 154 177 16,000  Level Seattle Center
03:06PM 45.6514 -125.9500 197° South 154 177 16,000  Level Seattle Center
03:07PM 45.6272 -125.9956 233° Southwest 150 173 16,000  Level Seattle Center
03:08PM 45.6022 -126.0400 231° Southwest 142 163 16,000  Level Seattle Center
03:09PM 45.5781 -126.0878 234° Southwest 146 168 16,000  Level Seattle Center
03:10PM 45.5469 -126.1400 230° Southwest 146 168 16,000  Level Seattle Center
03:11PM 45.5833 -126.1725 328° Northwest 201 231 16,000 -360 Level Seattle Center
03:12PM 45.6461 -126.1622 North 226 260 15,300 -780 Descending Seattle Center
03:13PM 45.7031 -126.1528 North 213 245 14,500 -1,140 Descending Seattle Center
03:14PM 45.7567 -126.1439 North 199 229 13,100 180 Descending Seattle Center
03:15PM 45.8142 -126.1344 North 203 234 14,900 780 Climbing Seattle Center
03:16PM 45.8744 -126.1236 North 214 246 14,800 -600 Descending Seattle Center
03:17PM 45.9289 -126.0950 20° North 211 243 13,800 -1,440 Descending Seattle Center
03:18PM 45.9822 -126.0664 20° North 218 251 11,900 -780 Descending Seattle Center
03:19PM 46.0156 -125.9950 56° Northeast 217 250 12,300 180 Climbing Seattle Center
03:20PM 46.0464 -125.9308 55° Northeast 205 236 12,300 720 Level Seattle Center
03:21PM 46.0794 -125.8614 56° Northeast 204 235 13,800 1,560 Climbing Seattle Center
03:22PM 46.1067 -125.7642 68° East 215 247 15,500 -240 Climbing Seattle Center
03:23PM 46.1286 -125.6839 68° East 215 247 13,400 -2,280 Descending Seattle Center
03:24PM 46.1481 -125.6117 69° East 201 231 10,900 -900 Descending Seattle Center
03:25PM 46.1519 -125.5392 86° East 200 230 11,600 900 Climbing Seattle Center
03:26PM 46.1208 -125.5581 203° Southwest 132 152 12,800 60 Climbing Seattle Center
03:27PM 46.0942 -125.5847 215° Southwest 119 137 11,800 -660 Descending Seattle Center
03:28PM 46.0708 -125.6078 214° Southwest 108 124 11,500 180 Descending Seattle Center
03:29PM 46.0436 -125.6303 210° Southwest 110 127 12,200 600 Climbing Seattle Center
03:30PM 46.0175 -125.6478 205° Southwest 107 123 12,800 1,080 Climbing Seattle Center
03:31PM 45.9931 -125.6747 217° Southwest 107 123 14,500 780 Climbing Seattle Center
03:32PM 45.9719 -125.7111 230° Southwest 115 132 14,500 -780 Level Seattle Center
03:33PM 45.9506 -125.7458 228° Southwest 115 132 13,000 -1,440 Descending Seattle Center
03:35PM 45.9272 -125.7800 226° Southwest 105 121 11,600 60 Descending Seattle Center
03:36PM 45.8983 -125.8175 222° Southwest 131 151 13,200 2,160 Climbing Seattle Center
03:37PM 45.8700 -125.8619 228° Southwest 152 175 16,000 300 Climbing Seattle Center
03:38PM 45.8556 -125.8944 237° Southwest 111 128 13,900 -1,740 Descending Seattle Center
03:39PM 45.8375 -125.9269 231° Southwest 108 124 12,500 -420 Descending Seattle Center
03:40PM 45.8208 -125.9728 242° Southwest 122 140 13,100 540 Climbing Seattle Center
03:41PM 45.8056 -126.0156 243° Southwest 127 146 13,600 240 Climbing Seattle Center
03:42PM 45.7872 -126.0544 236° Southwest 121 139 13,600 180 Level Seattle Center
03:43PM 45.7708 -126.0881 235° Southwest 111 128 14,000 420 Climbing Seattle Center
03:44PM 45.7500 -126.1242 230° Southwest 116 133 14,500 1,140 Climbing Seattle Center
03:45PM 45.7214 -126.1583 220° Southwest 134 154 16,400 -120 Climbing Seattle Center
03:46PM 45.6836 -126.1642 186° South 120 138 14,300 -2,220 Descending Seattle Center
03:47PM 45.6508 -126.1611 176° South 120 138 12,000 -480 Descending Seattle Center
03:48PM 45.6119 -126.1503 169° South 137 158 13,400 1,560 Climbing Seattle Center
03:49PM 45.6222 -126.0769 79° East 220 253 15,200 780 Climbing Seattle Center
03:50PM 45.6817 -126.0564 14° North 224 258 15,000 -120 Descending Seattle Center
03:51PM 45.7414 -126.0425 North 220 253 15,000  Level Seattle Center
03:52PM 45.7992 -126.0231 13° North 218 251 15,000 -300 Level Seattle Center
03:53PM 45.8525 -126.0008 16° North 205 236 14,500 -660 Descending Seattle Center
03:54PM 45.9069 -125.9839 12° North 203 234 13,700 -300 Descending Seattle Center
03:55PM 45.9611 -125.9658 13° North 203 234 13,900 -60 Climbing Seattle Center
03:56PM 46.0142 -125.9442 16° North 201 231 13,600 -60 Descending Seattle Center
03:57PM 46.0678 -125.9158 20° North 203 234 13,800 180 Climbing Seattle Center
03:58PM 46.1186 -125.8489 42° Northeast 241 277 14,000 60 Climbing Seattle Center
03:59PM 46.1853 -125.7631 42° Northeast 263 303 14,000  Level Seattle Center
04:00PM 46.2411 -125.6911 42° Northeast 264 304 14,100 60 Climbing Seattle Center
04:01PM 46.2628 -125.5942 72° East 257 296 14,200  Climbing Seattle Center
04:02PM 46.2828 -125.4994 73° East 251 289 14,100 -120 Descending Seattle Center
04:03PM 46.2897 -125.4267 82° East 191 220 14,000 -60 Descending Seattle Center
04:04PM 46.2606 -125.4031 151° Southeast 129 148 14,000  Level Seattle Center
04:05PM 46.2300 -125.3850 158° South 118 136 14,000 -60 Level Seattle Center
04:06PM 46.1986 -125.3667 158° South 120 138 13,900 -120 Descending Seattle Center
04:07PM 46.1681 -125.3533 163° South 119 137 13,800 -60 Descending Seattle Center
04:08PM 46.1369 -125.3431 167° South 116 133 13,800  Level Seattle Center
04:09PM 46.1206 -125.3903 243° Southwest 171 197 13,900 120 Climbing Seattle Center
04:10PM 46.1225 -125.4844 272° West 228 262 14,100 -60 Climbing Seattle Center
04:11PM 46.1250 -125.5797 272° West 234 269 13,800 -240 Descending Seattle Center
04:12PM 46.1022 -125.6750 251° West 235 270 13,700 -120 Descending Seattle Center
04:13PM 46.0603 -125.7331 224° Southwest 215 247 13,600 -180 Descending Seattle Center
04:14PM 46.0181 -125.7906 223° Southwest 213 245 13,400 -300 Descending Seattle Center
04:15PM 45.9733 -125.8458 221° Southwest 213 245 13,100 -300 Descending Seattle Center
04:16PM 45.9319 -125.9022 223° Southwest 210 242 12,900 -300 Descending Seattle Center
04:17PM 45.8908 -125.9611 225° Southwest 210 242 12,600 240 Descending Seattle Center
04:18PM 45.8500 -125.8986 133° Southeast 277 319 13,400 1,140 Climbing Seattle Center
04:19PM 45.8925 -125.7731 64° Northeast 347 399 15,000 780 Climbing Seattle Center
04:20PM 45.9733 -125.6481 47° Northeast 411 473 15,000  Level Seattle Center
04:21PM 46.0536 -125.5286 46° Northeast 418 481 15,000  Level Seattle Center
04:22PM 46.1336 -125.4094 46° Northeast 416 479 15,000  Level Seattle Center
04:23PM 46.2053 -125.2767 52° Northeast 417 480 15,000  Level Seattle Center
04:28PM 46.4582 -124.5180 65° Northeast 418 481 15,200  Climbing FlightAware ADS-B
04:29PM 46.4865 -124.4320 65° Northeast 418 481 15,200  Level FlightAware ADS-B
04:29PM 46.5180 -124.3360 65° Northeast 418 481 15,200  Level FlightAware ADS-B
04:30PM 46.5455 -124.2510 65° Northeast 420 483 15,200  Level FlightAware ADS-B
04:30PM 46.5704 -124.1740 65° Northeast 420 483 15,200  Level FlightAware ADS-B
04:31PM 46.5956 -124.0960 65° Northeast 420 483 15,200  Level FlightAware ADS-B
04:31PM 46.6201 -124.0200 65° Northeast 419 482 15,200  Level FlightAware ADS-B
04:32PM 46.6478 -123.9330 65° Northeast 420 483 15,200  Level FlightAware ADS-B
04:33PM 46.6716 -123.8590 65° Northeast 420 483 15,200  Level FlightAware ADS-B
04:33PM 46.6992 -123.7720 65° Northeast 420 483 15,200  Level FlightAware ADS-B
04:34PM 46.7233 -123.6970 65° Northeast 418 481 15,200  Level FlightAware ADS-B
04:34PM 46.7499 -123.6130 65° Northeast 416 479 15,200  Level FlightAware ADS-B
04:35PM 46.7766 -123.5280 65° Northeast 417 480 15,200  Level FlightAware ADS-B
04:35PM 46.8011 -123.4500 65° Northeast 416 479 15,200  Level FlightAware ADS-B
04:36PM 46.8249 -123.3750 65° Northeast 391 450 15,200  Level FlightAware ADS-B
04:36PM 46.8471 -123.3030 66° East 380 437 15,200  Level FlightAware ADS-B
04:37PM 46.8701 -123.2300 66° East 383 441 15,200  Level FlightAware ADS-B
04:37PM 46.8923 -123.1580 65° Northeast 387 445 15,200  Level FlightAware ADS-B
04:38PM 46.9149 -123.0860 66° East 400 460 15,200  Level FlightAware ADS-B
04:38PM 46.9373 -123.0130 66° East 388 447 15,200  Level FlightAware ADS-B
04:39PM 46.9603 -122.9390 65° Northeast 391 450 15,200  Level FlightAware ADS-B
04:39PM 46.9651 -122.9240 59° Northeast 391 450 15,200  Level FlightAware ADS-B
04:39PM 46.9729 -122.9080 55° Northeast 392 451 15,200  Level FlightAware ADS-B
04:39PM 46.9827 -122.8910 49° Northeast 392 451 15,200  Level FlightAware ADS-B
04:39PM 46.9834 -122.8895 49° Northeast 392 451 15,200  Level FlightAware ADS-B (CYVR)
04:39PM 46.9948 -122.8720 44° Northeast 392 451 15,200 -180 Level FlightAware ADS-B
04:40PM 47.0362 -122.8200 41° Northeast 387 445 15,100 -900 Descending FlightAware ADS-B
04:40PM 47.0762 -122.7690 41° Northeast 379 436 14,300 -1,620 Descending FlightAware ADS-B
04:41PM 47.1157 -122.7180 41° Northeast 371 427 13,500 -1,380 Descending FlightAware ADS-B
04:41PM 47.1541 -122.6690 41° Northeast 360 414 12,900 -1,380 Descending FlightAware ADS-B
04:41PM 47.1754 -122.6420 40° Northeast 353 406 12,400 -1,920 Descending FlightAware ADS-B
04:42PM 47.1828 -122.6330 37° Northeast 352 405 12,200 -2,400 Descending FlightAware ADS-B
04:42PM 47.1887 -122.6270 33° Northeast 351 404 12,000 -2,280 Descending FlightAware ADS-B
04:42PM 47.1937 -122.6240 27° Northeast 350 403 11,900 -2,280 Descending FlightAware ADS-B
04:42PM 47.2011 -122.6190 20° North 346 398 11,700 -2,280 Descending FlightAware ADS-B
04:42PM 47.2059 -122.6170 16° North 342 394 11,600 -1,020 Descending FlightAware ADS-B
04:42PM 47.2105 -122.6150 12° North 338 389 11,600 -1,380 Level FlightAware ADS-B
04:42PM 47.2185 -122.6140 North 328 377 11,400 -2,040 Descending FlightAware ADS-B
04:42PM 47.2271 -122.6140 359° North 319 367 11,200 -2,220 Descending FlightAware ADS-B
04:43PM 47.2725 -122.6190 355° North 300 345 10,000 -2,460 Descending FlightAware ADS-B
04:43PM 47.2935 -122.6220 355° North 294 338 9,300 -2,760 Descending FlightAware ADS-B
04:43PM 47.3147 -122.6240 355° North 288 331 8,600 -2,940 Descending FlightAware ADS-B
04:43PM 47.3299 -122.6260 355° North 282 325 8,000 -2,700 Descending FlightAware ADS-B
04:44PM 47.3493 -122.6290 355° North 267 307 7,400 -2,340 Descending FlightAware ADS-B
04:44PM 47.3616 -122.6310 355° North 260 299 7,000 -2,400 Descending FlightAware ADS-B
04:44PM 47.3801 -122.6330 355° North 252 290 6,400 -1,500 Descending FlightAware ADS-B
04:44PM 47.3943 -122.6340 356° North 235 270 6,300 -480 Descending FlightAware ADS-B
04:44PM 47.4063 -122.6360 356° North 225 259 6,200 -240 Descending FlightAware ADS-B
04:45PM 47.4216 -122.6370 357° North 217 250 6,200  Level FlightAware ADS-B
04:45PM 47.4371 -122.6390 357° North 215 247 6,200  Level FlightAware ADS-B
04:45PM 47.4524 -122.6400 357° North 215 247 6,200  Level FlightAware ADS-B
04:45PM 47.4673 -122.6410 357° North 214 246 6,200  Level FlightAware ADS-B
04:46PM 47.4796 -122.6420 357° North 215 247 6,200  Level FlightAware ADS-B
04:46PM 47.4948 -122.6440 357° North 216 249 6,200  Level FlightAware ADS-B
04:46PM 47.5058 -122.6440 357° North 218 251 6,200  Level FlightAware ADS-B
04:46PM 47.5099 -122.6450 359° North 220 253 6,200  Level FlightAware ADS-B
04:46PM 47.5129 -122.6450 North 221 254 6,200 -900 Level FlightAware ADS-B
04:46PM 47.5160 -122.6440 North 223 257 6,100 -1,740 Descending FlightAware ADS-B
04:46PM 47.5201 -122.6430 12° North 226 260 6,000 -2,040 Descending FlightAware ADS-B
04:46PM 47.5231 -122.6420 16° North 227 261 5,900 -1,500 Descending FlightAware ADS-B
04:46PM 47.5282 -122.6390 19° North 230 265 5,800 -2,040 Descending FlightAware ADS-B
04:47PM 47.5434 -122.6310 21° North 233 268 5,200 -2,280 Descending FlightAware ADS-B
04:47PM 47.5570 -122.6230 21° North 231 266 4,700 -2,160 Descending FlightAware ADS-B
04:47PM 47.5719 -122.6140 21° North 228 262 4,200 -2,100 Descending FlightAware ADS-B
04:47PM 47.5797 -122.6100 20° North 227 261 3,900 -2,400 Descending FlightAware ADS-B
04:47PM 47.5919 -122.6040 19° North 230 265 3,400 -2,220 Descending FlightAware ADS-B
04:48PM 47.6127 -122.5940 18° North 233 268 2,700 -1,680 Descending FlightAware ADS-B
04:48PM 47.6287 -122.5870 16° North 242 278 2,400 -600 Descending FlightAware ADS-B
04:48PM 47.6450 -122.5800 16° North 231 266 2,400  Level FlightAware ADS-B
04:49PM 47.6690 -122.5680 16° North 228 262 2,400  Level FlightAware ADS-B
04:49PM 47.6756 -122.5610 30° Northeast 228 262 2,400  Level FlightAware ADS-B
04:49PM 47.6841 -122.5470 42° Northeast 225 259 2,400  Level FlightAware ADS-B
04:49PM 47.6917 -122.5340 49° Northeast 223 257 2,400  Level FlightAware ADS-B
04:50PM 47.7018 -122.5160 50° Northeast 219 252 2,400  Level FlightAware ADS-B
04:50PM 47.7156 -122.4910 52° Northeast 213 245 2,400  Level FlightAware ADS-B
04:50PM 47.7189 -122.4840 58° Northeast 210 242 2,400  Level FlightAware ADS-B
04:50PM 47.7148 -122.4510 78° East 201 231 2,400  Level FlightAware ADS-B
04:51PM 47.6794 -122.4290 156° South 159 183 2,400  Level FlightAware ADS-B
04:52PM 47.6652 -122.4170 151° Southeast 159 183 2,400  Level FlightAware ADS-B
04:52PM 47.6498 -122.4040 150° Southeast 158 182 2,400  Level FlightAware ADS-B
04:52PM 47.6410 -122.3960 150° Southeast 158 182 2,400 -240 Level FlightAware ADS-B
04:53PM 47.6314 -122.3880 150° Southeast 159 183 2,300 -420 Descending FlightAware ADS-B
04:53PM 47.6225 -122.3810 151° Southeast 142 163 2,200 -780 Descending FlightAware ADS-B
04:53PM 47.6082 -122.3690 150° Southeast 132 152 1,800 -840 Descending FlightAware ADS-B
04:54PM 47.5952 -122.3580 150° Southeast 124 143 1,500 -900 Descending FlightAware ADS-B
04:55PM 47.5628 -122.3311 150° Southeast 126 145 500 -900 Descending Seattle Center
04:55PM 47.5603 -122.3300 163° South 127 146 500  Level Seattle Center